Time;durP1;ratioP1;P1;durP2;ratioP2;P2;SDS_P1;SDS_P2;PMS_P1;PMS_P2;Temp;Humidity;BMP_temperature;BMP_pressure;BME280_temperature;BME280_humidity;BME280_pressure;Samples;Min_cycle;Max_cycle;Signal;HPM_P1;HPM_P2
2023/12/01 00:01:00;;;;;;;;;;;22.10;36.90;;;;;;4975375;28;19926;-49
2023/12/01 00:03:27;;;;;;;;;;;22.10;36.90;;;;;;4958057;28;20438;-52
2023/12/01 00:05:54;;;;;;;;;;;22.10;36.90;;;;;;4975091;28;19949;-52
2023/12/01 00:08:21;;;;;;;;;;;22.10;37.00;;;;;;4974797;28;19966;-50
2023/12/01 00:10:48;;;;;;;;;;;22.10;36.90;;;;;;4975156;28;19926;-49
2023/12/01 00:13:15;;;;;;;;;;;22.10;36.90;;;;;;4974772;28;20333;-48
2023/12/01 00:15:42;;;;;;;;;;;22.10;36.90;;;;;;4974947;28;19953;-48
2023/12/01 00:18:09;;;;;;;;;;;22.10;37.00;;;;;;4974661;28;19926;-48
2023/12/01 00:20:36;;;;;;;;;;;22.10;37.00;;;;;;4974660;28;19930;-48
2023/12/01 00:23:03;;;;;;;;;;;22.10;37.00;;;;;;4974974;28;20018;-51
2023/12/01 00:25:30;;;;;;;;;;;22.10;37.00;;;;;;4974708;28;19972;-48
2023/12/01 00:27:58;;;;;;;;;;;22.10;37.00;;;;;;4973909;28;20062;-47
2023/12/01 00:30:28;;;;;;;;;;;22.10;37.00;;;;;;4974541;28;19926;-49
2023/12/01 00:32:58;;;;;;;;;;;22.00;36.90;;;;;;4974651;28;19933;-47
2023/12/01 00:35:25;;;;;;;;;;;22.10;37.00;;;;;;4974667;28;20029;-53
2023/12/01 00:37:52;;;;;;;;;;;22.00;36.90;;;;;;4992894;28;19926;-48
2023/12/01 00:40:20;;;;;;;;;;;22.00;36.90;;;;;;4994016;28;19985;-47
2023/12/01 00:42:47;;;;;;;;;;;22.00;36.90;;;;;;4993757;28;19936;-49
2023/12/01 00:45:15;;;;;;;;;;;22.00;36.90;;;;;;4994171;28;20302;-49
2023/12/01 00:47:42;;;;;;;;;;;22.10;36.90;;;;;;4993906;28;19926;-48
2023/12/01 00:50:09;;;;;;;;;;;22.00;36.90;;;;;;4993958;28;19942;-48
2023/12/01 00:52:36;;;;;;;;;;;22.00;36.90;;;;;;4993815;28;19933;-54
2023/12/01 00:55:04;;;;;;;;;;;22.00;36.80;;;;;;4993831;28;19933;-55
2023/12/01 00:57:31;;;;;;;;;;;22.10;36.90;;;;;;4994016;28;19930;-54
2023/12/01 00:59:58;;;;;;;;;;;22.10;36.90;;;;;;4993195;28;19930;-52
2023/12/01 01:02:25;;;;;;;;;;;22.10;36.80;;;;;;4994051;28;19926;-49
2023/12/01 01:04:52;;;;;;;;;;;22.10;36.90;;;;;;4993620;28;19925;-53
2023/12/01 01:07:19;;;;;;;;;;;22.10;36.80;;;;;;4993810;28;19929;-50
2023/12/01 01:09:46;;;;;;;;;;;22.00;36.90;;;;;;4993373;28;20410;-50
2023/12/01 01:12:14;;;;;;;;;;;22.00;37.40;;;;;;4993471;28;19932;-50
2023/12/01 01:14:41;;;;;;;;;;;22.00;37.40;;;;;;4993370;28;19925;-53
2023/12/01 01:17:08;;;;;;;;;;;22.00;36.90;;;;;;4993863;28;19969;-50
2023/12/01 01:19:35;;;;;;;;;;;22.00;36.90;;;;;;4993461;28;19926;-50
2023/12/01 01:22:02;;;;;;;;;;;22.00;36.90;;;;;;4993382;28;19941;-48
2023/12/01 01:24:29;;;;;;;;;;;22.00;36.90;;;;;;4993818;28;19980;-50
2023/12/01 01:26:56;;;;;;;;;;;22.00;36.90;;;;;;4993211;28;19926;-54
2023/12/01 01:29:23;;;;;;;;;;;22.00;36.90;;;;;;4974175;28;19969;-48
2023/12/01 01:31:50;;;;;;;;;;;22.00;37.00;;;;;;4973777;28;19988;-54
2023/12/01 01:34:17;;;;;;;;;;;22.00;37.00;;;;;;4974113;28;20347;-53
2023/12/01 01:36:47;;;;;;;;;;;22.00;36.90;;;;;;4973901;28;19937;-49
2023/12/01 01:39:14;;;;;;;;;;;22.00;37.00;;;;;;4975785;28;19933;-50
2023/12/01 01:41:42;;;;;;;;;;;22.00;37.00;;;;;;4976954;28;19933;-48
2023/12/01 01:44:09;;;;;;;;;;;22.00;37.00;;;;;;4977674;28;19926;-52
2023/12/01 01:46:36;;;;;;;;;;;22.00;37.00;;;;;;4977545;28;19965;-48
2023/12/01 01:49:05;;;;;;;;;;;22.00;37.00;;;;;;4977035;28;19934;-48
2023/12/01 01:51:35;;;;;;;;;;;22.00;37.00;;;;;;4977713;28;19932;-48
2023/12/01 01:54:03;;;;;;;;;;;21.90;36.90;;;;;;4977280;28;19926;-48
2023/12/01 01:56:30;;;;;;;;;;;22.00;37.00;;;;;;4977153;28;20376;-49
2023/12/01 01:58:58;;;;;;;;;;;21.90;36.90;;;;;;4977311;28;19930;-51
2023/12/01 02:01:25;;;;;;;;;;;22.00;37.00;;;;;;4977203;28;20012;-51
2023/12/01 02:03:53;;;;;;;;;;;21.90;36.90;;;;;;4976919;28;20443;-53
2023/12/01 02:06:30;;;;;;;;;;;21.90;36.90;;;;;;4990152;28;19948;-48
2023/12/01 02:08:58;;;;;;;;;;;21.90;37.00;;;;;;4996568;28;20414;-52
2023/12/01 02:11:26;;;;;;;;;;;21.90;36.90;;;;;;4996386;28;19926;-52
2023/12/01 02:13:53;;;;;;;;;;;22.00;37.00;;;;;;4996013;28;19976;-48
2023/12/01 02:16:20;;;;;;;;;;;21.90;36.90;;;;;;4996371;28;19980;-50
2023/12/01 02:18:48;;;;;;;;;;;21.90;36.90;;;;;;4995336;28;19934;-48
2023/12/01 02:21:15;;;;;;;;;;;21.90;36.90;;;;;;4996010;28;19930;-48
2023/12/01 02:23:44;;;;;;;;;;;21.90;36.90;;;;;;4995991;28;19926;-48
2023/12/01 02:26:12;;;;;;;;;;;21.90;36.90;;;;;;4996246;28;19926;-47
2023/12/01 02:28:39;;;;;;;;;;;21.90;36.90;;;;;;4996158;28;20430;-48
2023/12/01 02:31:06;;;;;;;;;;;21.90;36.90;;;;;;4996400;28;19988;-49
2023/12/01 02:33:35;;;;;;;;;;;21.90;36.90;;;;;;4995778;28;19925;-48
2023/12/01 02:36:04;;;;;;;;;;;21.90;36.90;;;;;;4978756;28;19929;-50
2023/12/01 02:38:31;;;;;;;;;;;21.90;36.90;;;;;;4995587;28;19973;-50
2023/12/01 02:40:59;;;;;;;;;;;21.90;36.80;;;;;;4995912;28;19929;-48
2023/12/01 02:43:26;;;;;;;;;;;21.90;36.80;;;;;;4995728;28;19929;-49
2023/12/01 02:45:53;;;;;;;;;;;21.90;36.80;;;;;;4996062;28;19926;-48
2023/12/01 02:48:20;;;;;;;;;;;21.90;36.90;;;;;;4996025;28;19932;-56
2023/12/01 02:50:47;;;;;;;;;;;22.00;36.90;;;;;;4995373;28;19933;-57
2023/12/01 02:53:15;;;;;;;;;;;21.90;36.90;;;;;;4989037;28;19973;-53
2023/12/01 02:55:43;;;;;;;;;;;21.90;36.90;;;;;;4976103;28;20348;-52
2023/12/01 02:58:10;;;;;;;;;;;21.90;36.90;;;;;;4976569;28;19933;-51
2023/12/01 03:00:37;;;;;;;;;;;21.90;36.90;;;;;;4976172;28;19930;-50
2023/12/01 03:03:04;;;;;;;;;;;21.90;36.90;;;;;;4975847;28;19926;-53
2023/12/01 03:05:31;;;;;;;;;;;21.90;36.90;;;;;;4976271;28;19930;-53
2023/12/01 03:07:59;;;;;;;;;;;21.90;36.90;;;;;;4974199;28;20355;-53
2023/12/01 03:10:25;;;;;;;;;;;21.90;36.90;;;;;;4975665;28;20025;-48
2023/12/01 03:12:52;;;;;;;;;;;21.90;37.00;;;;;;4975383;28;20450;-50
2023/12/01 03:15:20;;;;;;;;;;;21.90;36.90;;;;;;4976080;28;19953;-52
2023/12/01 03:17:47;;;;;;;;;;;21.90;37.10;;;;;;4975896;28;19926;-50
2023/12/01 03:20:16;;;;;;;;;;;21.90;36.90;;;;;;4976340;28;19997;-51
2023/12/01 03:22:44;;;;;;;;;;;21.90;37.00;;;;;;4975465;28;20273;-52
2023/12/01 03:25:11;;;;;;;;;;;21.90;36.90;;;;;;4975832;28;19976;-49
2023/12/01 03:27:41;;;;;;;;;;;21.90;37.00;;;;;;4974933;28;19941;-48
2023/12/01 03:30:15;;;;;;;;;;;21.90;36.90;;;;;;4958618;28;19930;-53
2023/12/01 03:32:46;;;;;;;;;;;21.90;37.00;;;;;;4975185;28;20454;-53
2023/12/01 03:35:18;;;;;;;;;;;21.80;36.90;;;;;;4975403;28;20426;-49
2023/12/01 03:37:45;;;;;;;;;;;21.90;37.00;;;;;;4975256;28;19926;-49
2023/12/01 03:40:12;;;;;;;;;;;21.80;37.00;;;;;;4974893;28;20021;-54
2023/12/01 03:42:41;;;;;;;;;;;21.80;36.90;;;;;;4975418;28;19933;-53
2023/12/01 03:45:10;;;;;;;;;;;21.80;37.00;;;;;;4975091;28;19984;-49
2023/12/01 03:47:38;;;;;;;;;;;21.80;37.00;;;;;;4975347;28;19996;-49
2023/12/01 03:50:06;;;;;;;;;;;21.90;37.00;;;;;;4975219;28;20343;-54
2023/12/01 03:52:33;;;;;;;;;;;21.90;37.00;;;;;;4974669;28;19981;-50
2023/12/01 03:55:00;;;;;;;;;;;21.80;37.00;;;;;;4973801;28;19926;-48
2023/12/01 03:57:27;;;;;;;;;;;21.80;37.00;;;;;;4974785;28;20368;-47
2023/12/01 03:59:54;;;;;;;;;;;21.80;37.00;;;;;;4975072;28;20368;-49
2023/12/01 04:02:21;;;;;;;;;;;21.80;37.00;;;;;;4974802;28;19926;-47
2023/12/01 04:04:49;;;;;;;;;;;21.80;37.00;;;;;;4974770;28;19934;-47
2023/12/01 04:07:16;;;;;;;;;;;21.80;37.00;;;;;;4974669;28;20368;-50
2023/12/01 04:09:43;;;;;;;;;;;21.80;37.00;;;;;;4974651;28;19926;-52
2023/12/01 04:12:10;;;;;;;;;;;21.80;37.00;;;;;;4973978;28;19926;-47
2023/12/01 04:14:38;;;;;;;;;;;21.80;36.90;;;;;;4974819;28;20273;-48
2023/12/01 04:17:13;;;;;;;;;;;21.80;36.90;;;;;;4974561;28;20331;-48
2023/12/01 04:19:40;;;;;;;;;;;21.80;36.90;;;;;;4974584;28;19976;-48
2023/12/01 04:22:07;;;;;;;;;;;21.80;36.90;;;;;;4974819;28;19961;-49
2023/12/01 04:24:35;;;;;;;;;;;21.90;36.90;;;;;;4974799;28;20012;-50
2023/12/01 04:27:02;;;;;;;;;;;21.80;36.90;;;;;;4974658;28;19926;-53
2023/12/01 04:29:29;;;;;;;;;;;21.80;36.90;;;;;;4974632;28;20242;-51
2023/12/01 04:31:57;;;;;;;;;;;21.80;36.90;;;;;;4972883;28;19942;-47
2023/12/01 04:34:28;;;;;;;;;;;21.80;36.90;;;;;;4974350;28;19933;-47
2023/12/01 04:36:55;;;;;;;;;;;21.80;37.00;;;;;;4993639;28;19936;-47
2023/12/01 04:39:22;;;;;;;;;;;21.80;37.00;;;;;;4982211;28;19949;-47
2023/12/01 04:41:50;;;;;;;;;;;21.90;36.90;;;;;;4974605;28;20355;-51
2023/12/01 04:44:17;;;;;;;;;;;21.80;36.70;;;;;;4973765;28;20431;-54
2023/12/01 04:46:44;;;;;;;;;;;21.80;36.80;;;;;;4974393;28;19926;-54
2023/12/01 04:49:11;;;;;;;;;;;21.90;36.80;;;;;;4974620;28;19926;-54
2023/12/01 04:51:38;;;;;;;;;;;21.90;36.70;;;;;;4973551;28;19937;-50
2023/12/01 04:54:06;;;;;;;;;;;21.90;36.70;;;;;;4972857;28;19981;-53
2023/12/01 04:56:33;;;;;;;;;;;21.90;36.70;;;;;;4970841;28;19933;-53
2023/12/01 04:59:01;;;;;;;;;;;21.90;36.60;;;;;;4977663;28;20372;-53
2023/12/01 05:01:28;;;;;;;;;;;22.00;36.60;;;;;;4983567;28;20026;-52
2023/12/01 05:03:56;;;;;;;;;;;22.00;36.60;;;;;;4974022;28;20268;-53
2023/12/01 05:06:25;;;;;;;;;;;22.00;36.50;;;;;;4982492;28;19926;-52
2023/12/01 05:08:52;;;;;;;;;;;22.00;36.40;;;;;;4982392;28;20439;-49
2023/12/01 05:11:19;;;;;;;;;;;22.10;36.40;;;;;;4976409;28;19930;-50
2023/12/01 05:13:46;;;;;;;;;;;22.10;36.30;;;;;;4973961;28;20021;-52
2023/12/01 05:16:16;;;;;;;;;;;22.20;36.30;;;;;;4977777;28;20291;-47
2023/12/01 05:18:43;;;;;;;;;;;22.20;36.20;;;;;;4977594;28;19940;-53
2023/12/01 05:21:11;;;;;;;;;;;22.20;36.10;;;;;;4978056;28;20013;-53
2023/12/01 05:23:38;;;;;;;;;;;22.30;36.10;;;;;;4977647;28;20131;-52
2023/12/01 05:26:06;;;;;;;;;;;22.40;36.00;;;;;;4977692;28;20450;-47
2023/12/01 05:28:33;;;;;;;;;;;22.30;35.90;;;;;;4977910;28;19968;-47
2023/12/01 05:31:00;;;;;;;;;;;22.40;35.90;;;;;;4978107;28;19927;-47
2023/12/01 05:33:27;;;;;;;;;;;22.50;36.10;;;;;;4974156;28;19926;-49
2023/12/01 05:35:54;;;;;;;;;;;22.50;35.70;;;;;;4966539;28;19927;-47
2023/12/01 05:38:21;;;;;;;;;;;22.60;35.70;;;;;;4971865;28;19961;-52
2023/12/01 05:40:48;;;;;;;;;;;22.60;35.60;;;;;;4976425;28;19934;-47
2023/12/01 05:43:16;;;;;;;;;;;22.60;35.50;;;;;;4985479;28;20295;-50
2023/12/01 05:45:44;;;;;;;;;;;22.60;35.40;;;;;;4985640;28;20391;-53
2023/12/01 05:48:12;;;;;;;;;;;22.70;35.40;;;;;;4987529;28;19926;-49
2023/12/01 05:50:42;;;;;;;;;;;22.70;35.30;;;;;;4986362;28;20032;-48
2023/12/01 05:53:11;;;;;;;;;;;22.80;35.20;;;;;;4985721;28;19973;-48
2023/12/01 05:55:38;;;;;;;;;;;22.80;35.20;;;;;;4986613;28;19933;-49
2023/12/01 05:58:09;;;;;;;;;;;22.80;35.10;;;;;;4984634;28;19926;-50
2023/12/01 06:00:37;;;;;;;;;;;22.90;35.10;;;;;;4985143;28;19936;-48
2023/12/01 06:03:08;;;;;;;;;;;22.90;35.00;;;;;;4985708;28;20040;-48
2023/12/01 06:05:36;;;;;;;;;;;23.00;35.00;;;;;;4976163;28;20422;-50
2023/12/01 06:08:05;;;;;;;;;;;23.00;34.90;;;;;;4983033;28;19933;-47
2023/12/01 06:10:32;;;;;;;;;;;23.00;34.90;;;;;;4982635;28;20327;-57
2023/12/01 06:13:00;;;;;;;;;;;23.00;35.10;;;;;;4975100;28;19933;-47
2023/12/01 06:15:31;;;;;;;;;;;23.10;35.20;;;;;;4979865;28;19932;-54
2023/12/01 06:17:59;;;;;;;;;;;23.10;34.80;;;;;;4974929;28;19936;-52
2023/12/01 06:20:29;;;;;;;;;;;23.10;34.80;;;;;;4970679;28;20447;-49
2023/12/01 06:22:57;;;;;;;;;;;23.20;34.90;;;;;;4974983;28;19930;-49
2023/12/01 06:25:28;;;;;;;;;;;23.20;34.90;;;;;;4967754;28;19934;-51
2023/12/01 06:27:56;;;;;;;;;;;23.30;35.30;;;;;;4971616;28;19941;-46
2023/12/01 06:30:24;;;;;;;;;;;23.30;35.10;;;;;;4966562;28;19969;-54
2023/12/01 06:32:51;;;;;;;;;;;23.40;35.30;;;;;;4967977;28;20293;-51
2023/12/01 06:35:20;;;;;;;;;;;23.40;35.20;;;;;;4973110;28;19934;-53
2023/12/01 06:37:48;;;;;;;;;;;23.40;35.50;;;;;;4972813;28;20051;-51
2023/12/01 06:40:17;;;;;;;;;;;23.50;35.40;;;;;;4973199;28;19934;-52
2023/12/01 06:42:45;;;;;;;;;;;23.50;35.20;;;;;;4973338;28;19934;-50
2023/12/01 06:45:15;;;;;;;;;;;23.50;35.20;;;;;;4968784;28;19934;-54
2023/12/01 06:47:42;;;;;;;;;;;23.50;35.20;;;;;;4968404;28;20498;-55
2023/12/01 06:50:10;;;;;;;;;;;23.60;35.20;;;;;;4967233;28;20020;-54
2023/12/01 06:52:38;;;;;;;;;;;23.60;35.30;;;;;;4966824;28;19934;-56
2023/12/01 06:55:07;;;;;;;;;;;23.60;35.30;;;;;;4966712;28;19930;-51
2023/12/01 06:57:40;;;;;;;;;;;23.70;35.30;;;;;;4949104;28;19942;-54
2023/12/01 07:00:09;;;;;;;;;;;23.70;35.30;;;;;;4968471;28;19933;-54
2023/12/01 07:02:40;;;;;;;;;;;23.70;35.60;;;;;;4966380;28;19925;-52
2023/12/01 07:05:08;;;;;;;;;;;23.70;35.50;;;;;;4968160;28;19932;-52
2023/12/01 07:07:37;;;;;;;;;;;23.70;35.40;;;;;;4969428;28;19930;-49
2023/12/01 07:10:08;;;;;;;;;;;23.80;35.60;;;;;;4968652;28;20013;-53
2023/12/01 07:12:35;;;;;;;;;;;23.90;35.60;;;;;;4968384;28;20396;-57
2023/12/01 07:15:02;;;;;;;;;;;23.90;35.60;;;;;;4968846;28;19938;-49
2023/12/01 07:17:29;;;;;;;;;;;23.90;35.60;;;;;;4961458;28;20804;-58
2023/12/01 07:19:56;;;;;;;;;;;24.00;35.60;;;;;;4955527;28;20016;-59
2023/12/01 07:22:24;;;;;;;;;;;24.00;35.70;;;;;;4962822;28;19934;-50
2023/12/01 07:24:52;;;;;;;;;;;24.10;35.60;;;;;;4964932;28;19926;-52
2023/12/01 07:27:25;;;;;;;;;;;24.10;35.70;;;;;;4968519;28;19934;-52
2023/12/01 07:29:52;;;;;;;;;;;24.10;35.60;;;;;;4970639;28;20731;-52
2023/12/01 07:32:19;;;;;;;;;;;24.20;35.70;;;;;;4950556;28;19942;-50
2023/12/01 07:34:47;;;;;;;;;;;24.30;35.80;;;;;;4963492;28;20764;-53
2023/12/01 07:37:14;;;;;;;;;;;24.30;35.60;;;;;;4957625;28;20412;-54
2023/12/01 07:39:41;;;;;;;;;;;24.40;35.50;;;;;;4957396;28;20418;-54
2023/12/01 07:42:08;;;;;;;;;;;24.30;35.30;;;;;;4964489;28;19933;-54
2023/12/01 07:44:35;;;;;;;;;;;24.40;35.50;;;;;;4961251;28;19934;-54
2023/12/01 07:47:04;;;;;;;;;;;24.40;35.30;;;;;;4964104;28;19933;-50
2023/12/01 07:49:32;;;;;;;;;;;24.40;35.30;;;;;;4961219;28;20033;-53
2023/12/01 07:51:59;;;;;;;;;;;24.50;35.20;;;;;;4961692;28;20407;-50
2023/12/01 07:54:26;;;;;;;;;;;24.50;35.20;;;;;;4963002;28;20560;-56
2023/12/01 07:56:53;;;;;;;;;;;24.50;35.10;;;;;;4963366;28;19936;-55
2023/12/01 07:59:21;;;;;;;;;;;24.50;35.30;;;;;;4964508;28;20379;-51
2023/12/01 08:01:48;;;;;;;;;;;24.50;35.30;;;;;;4959838;28;19993;-52
2023/12/01 08:04:15;;;;;;;;;;;24.50;35.10;;;;;;4959452;28;19948;-51
2023/12/01 08:06:42;;;;;;;;;;;24.50;35.10;;;;;;4964486;28;20344;-54
2023/12/01 08:09:12;;;;;;;;;;;24.50;35.10;;;;;;4964426;28;19926;-54
2023/12/01 08:11:39;;;;;;;;;;;24.50;35.20;;;;;;4966061;28;20000;-53
2023/12/01 08:14:08;;;;;;;;;;;24.50;35.20;;;;;;4962107;28;19938;-53
2023/12/01 08:16:35;;;;;;;;;;;24.50;35.30;;;;;;4968067;28;19941;-51
2023/12/01 08:19:03;;;;;;;;;;;24.50;35.20;;;;;;4969397;28;19969;-54
2023/12/01 08:21:31;;;;;;;;;;;24.50;35.20;;;;;;4969778;28;20398;-54
2023/12/01 08:23:58;;;;;;;;;;;24.50;35.10;;;;;;4960939;28;20932;-52
2023/12/01 08:26:25;;;;;;;;;;;24.60;35.30;;;;;;4966038;28;19941;-55
2023/12/01 08:28:53;;;;;;;;;;;24.60;35.20;;;;;;4964084;28;20025;-58
2023/12/01 08:31:20;;;;;;;;;;;24.70;35.30;;;;;;4965506;28;20288;-55
2023/12/01 08:33:48;;;;;;;;;;;24.70;35.20;;;;;;4970991;28;19934;-56
2023/12/01 08:36:15;;;;;;;;;;;24.70;35.20;;;;;;4966686;28;19926;-55
2023/12/01 08:38:44;;;;;;;;;;;24.80;35.30;;;;;;4961463;28;19936;-54
2023/12/01 08:41:11;;;;;;;;;;;24.80;35.40;;;;;;4968107;28;19926;-52
2023/12/01 08:43:38;;;;;;;;;;;24.80;35.40;;;;;;4964807;28;19936;-54
2023/12/01 08:46:06;;;;;;;;;;;24.80;35.40;;;;;;4972729;28;19933;-52
2023/12/01 08:48:33;;;;;;;;;;;24.90;35.30;;;;;;4970299;28;19938;-55
2023/12/01 08:51:00;;;;;;;;;;;24.90;35.20;;;;;;4970099;28;20206;-57
2023/12/01 08:53:28;;;;;;;;;;;24.90;35.10;;;;;;4969039;28;19934;-57
2023/12/01 08:55:56;;;;;;;;;;;24.90;35.10;;;;;;4973167;28;19926;-51
2023/12/01 08:58:24;;;;;;;;;;;24.90;35.20;;;;;;4968865;28;20016;-52
2023/12/01 09:00:51;;;;;;;;;;;24.90;35.10;;;;;;4971863;28;19957;-56
2023/12/01 09:03:18;;;;;;;;;;;25.00;35.20;;;;;;4971448;28;19934;-55
2023/12/01 09:05:45;;;;;;;;;;;25.00;35.20;;;;;;4967943;28;19934;-54
2023/12/01 09:08:12;;;;;;;;;;;25.00;35.10;;;;;;4957025;28;20391;-56
2023/12/01 09:10:39;;;;;;;;;;;25.00;35.00;;;;;;4964126;28;19937;-59
2023/12/01 09:13:06;;;;;;;;;;;25.10;35.10;;;;;;4965620;28;19930;-56
2023/12/01 09:15:34;;;;;;;;;;;25.00;35.10;;;;;;4961925;28;19933;-54
2023/12/01 09:18:02;;;;;;;;;;;25.10;35.10;;;;;;4965951;28;20387;-55
2023/12/01 09:20:29;;;;;;;;;;;25.10;35.10;;;;;;4971459;28;20028;-52
2023/12/01 09:22:56;;;;;;;;;;;25.10;35.10;;;;;;4966857;28;19926;-53
2023/12/01 09:25:24;;;;;;;;;;;25.10;35.20;;;;;;4963113;28;19976;-55
2023/12/01 09:27:51;;;;;;;;;;;25.10;35.30;;;;;;4965075;28;19937;-50
2023/12/01 09:30:19;;;;;;;;;;;25.10;35.30;;;;;;4967421;28;19994;-52
2023/12/01 09:32:46;;;;;;;;;;;25.10;35.20;;;;;;4961798;28;20395;-53
2023/12/01 09:35:15;;;;;;;;;;;25.10;35.10;;;;;;4962724;28;20021;-52
2023/12/01 09:38:02;;;;;;;;;;;25.10;34.90;;;;;;4963078;28;20326;-55
2023/12/01 09:40:29;;;;;;;;;;;25.10;34.90;;;;;;4965593;28;19981;-49
2023/12/01 09:42:56;;;;;;;;;;;25.10;34.90;;;;;;4962663;28;20321;-53
2023/12/01 09:45:26;;;;;;;;;;;25.10;35.00;;;;;;4958887;28;19934;-55
2023/12/01 09:47:57;;;;;;;;;;;25.20;35.20;;;;;;4961129;28;19934;-52
2023/12/01 09:50:25;;;;;;;;;;;25.20;35.00;;;;;;4963866;28;19926;-57
2023/12/01 09:52:52;;;;;;;;;;;25.20;35.00;;;;;;4968087;28;19938;-53
2023/12/01 09:55:20;;;;;;;;;;;25.20;34.90;;;;;;4947708;28;19976;-55
2023/12/01 09:57:47;;;;;;;;;;;25.30;35.10;;;;;;4970147;28;19926;-54
2023/12/01 10:00:15;;;;;;;;;;;25.30;35.00;;;;;;4975158;28;19925;-50
2023/12/01 10:02:42;;;;;;;;;;;25.30;34.90;;;;;;4971450;28;20004;-51
2023/12/01 10:05:13;;;;;;;;;;;25.30;34.80;;;;;;4968916;28;19941;-52
2023/12/01 10:07:41;;;;;;;;;;;25.40;34.90;;;;;;4966876;28;19941;-54
2023/12/01 10:10:22;;;;;;;;;;;25.40;34.90;;;;;;4964899;28;19937;-50
2023/12/01 10:13:04;;;;;;;;;;;25.40;34.70;;;;;;4959919;28;19938;-57
2023/12/01 10:15:33;;;;;;;;;;;25.40;34.70;;;;;;4969207;28;20021;-53
2023/12/01 10:18:15;;;;;;;;;;;25.40;34.80;;;;;;4969794;28;19929;-52
2023/12/01 10:21:02;;;;;;;;;;;25.50;35.00;;;;;;4970893;28;19941;-54
2023/12/01 10:23:33;;;;;;;;;;;25.50;35.00;;;;;;4965906;28;20360;-58
2023/12/01 10:26:03;;;;;;;;;;;25.50;35.00;;;;;;4966660;28;20277;-57
2023/12/01 10:28:39;;;;;;;;;;;25.50;34.90;;;;;;4973584;28;20024;-55
2023/12/01 10:31:07;;;;;;;;;;;25.40;34.80;;;;;;4973824;28;19984;-56
2023/12/01 10:33:35;;;;;;;;;;;25.40;34.80;;;;;;4970112;28;20901;-57
2023/12/01 10:36:09;;;;;;;;;;;25.40;34.90;;;;;;4966148;28;19934;-57
2023/12/01 10:38:36;;;;;;;;;;;25.50;35.00;;;;;;4969716;28;21194;-56
2023/12/01 10:41:04;;;;;;;;;;;25.50;35.00;;;;;;4971125;28;20323;-55
2023/12/01 10:43:32;;;;;;;;;;;25.50;34.90;;;;;;4969451;28;19934;-54
2023/12/01 10:46:03;;;;;;;;;;;25.50;34.80;;;;;;4962667;28;19996;-54
2023/12/01 10:48:31;;;;;;;;;;;25.50;34.80;;;;;;4966312;28;19981;-54
2023/12/01 10:51:00;;;;;;;;;;;25.50;34.70;;;;;;4957342;28;19930;-56
2023/12/01 10:53:28;;;;;;;;;;;25.50;34.70;;;;;;4960635;28;19930;-57
2023/12/01 10:55:59;;;;;;;;;;;25.50;34.70;;;;;;4972243;28;20037;-54
2023/12/01 10:58:30;;;;;;;;;;;25.50;35.30;;;;;;4966484;28;19926;-55
2023/12/01 11:00:58;;;;;;;;;;;25.50;34.70;;;;;;4962785;28;19938;-56
2023/12/01 11:03:28;;;;;;;;;;;25.50;34.80;;;;;;4972314;28;19933;-53
2023/12/01 11:06:02;;;;;;;;;;;25.50;34.80;;;;;;4969641;28;19938;-55
2023/12/01 11:08:43;;;;;;;;;;;25.50;34.70;;;;;;4978138;28;19937;-57
2023/12/01 11:11:31;;;;;;;;;;;25.50;34.80;;;;;;4953306;28;20457;-55
2023/12/01 11:14:18;;;;;;;;;;;25.50;35.40;;;;;;4976732;28;20277;-55
2023/12/01 11:16:48;;;;;;;;;;;25.50;35.20;;;;;;4966557;28;19930;-54
2023/12/01 11:19:16;;;;;;;;;;;25.60;35.30;;;;;;4971194;28;19977;-56
2023/12/01 11:21:44;;;;;;;;;;;25.60;35.20;;;;;;4973807;28;19934;-56
2023/12/01 11:24:35;;;;;;;;;;;25.70;35.10;;;;;;4969560;28;19930;-52
2023/12/01 11:27:05;;;;;;;;;;;25.70;35.00;;;;;;4968967;28;20457;-52
2023/12/01 11:29:35;;;;;;;;;;;25.70;35.00;;;;;;4972981;28;20028;-51
2023/12/01 11:32:03;;;;;;;;;;;25.80;35.00;;;;;;4973089;28;19934;-54
2023/12/01 11:34:31;;;;;;;;;;;25.70;35.00;;;;;;4970569;28;19979;-54
2023/12/01 11:37:00;;;;;;;;;;;25.80;35.00;;;;;;4972789;28;19926;-55
2023/12/01 11:39:29;;;;;;;;;;;25.80;35.00;;;;;;4963321;28;20347;-56
2023/12/01 11:42:14;;;;;;;;;;;25.80;35.00;;;;;;4977232;28;19940;-54
2023/12/01 11:44:42;;;;;;;;;;;25.80;34.90;;;;;;4973086;28;19929;-55
2023/12/01 11:47:12;;;;;;;;;;;25.80;34.80;;;;;;4971297;28;19973;-55
2023/12/01 11:49:41;;;;;;;;;;;25.80;34.90;;;;;;4969174;28;19937;-56
2023/12/01 11:52:13;;;;;;;;;;;25.80;35.40;;;;;;4969028;28;19926;-54
2023/12/01 11:54:41;;;;;;;;;;;25.80;34.90;;;;;;4966857;28;20295;-56
2023/12/01 11:57:09;;;;;;;;;;;25.90;35.00;;;;;;4966873;28;20444;-56
2023/12/01 11:59:37;;;;;;;;;;;25.90;35.00;;;;;;4964284;28;19934;-52
2023/12/01 12:02:04;;;;;;;;;;;25.90;34.90;;;;;;4968043;28;20411;-58
2023/12/01 12:04:37;;;;;;;;;;;25.90;35.00;;;;;;4975049;28;19958;-57
2023/12/01 12:07:05;;;;;;;;;;;25.90;35.10;;;;;;4968137;28;19977;-55
2023/12/01 12:09:34;;;;;;;;;;;25.80;35.10;;;;;;4967491;28;20025;-56
2023/12/01 12:12:05;;;;;;;;;;;25.80;35.10;;;;;;4963951;28;19979;-56
2023/12/01 12:14:35;;;;;;;;;;;25.80;35.10;;;;;;4963504;28;19926;-55
2023/12/01 12:17:03;;;;;;;;;;;25.80;35.00;;;;;;4966416;28;19934;-57
2023/12/01 12:19:42;;;;;;;;;;;25.80;35.10;;;;;;4963915;28;19929;-53
2023/12/01 12:22:13;;;;;;;;;;;25.80;35.10;;;;;;4964976;28;19926;-56
2023/12/01 12:24:46;;;;;;;;;;;25.80;35.10;;;;;;4963602;28;20044;-56
2023/12/01 12:27:15;;;;;;;;;;;25.80;35.00;;;;;;4966841;28;19930;-57
2023/12/01 12:29:43;;;;;;;;;;;25.90;35.10;;;;;;4966430;28;19934;-53
2023/12/01 12:32:10;;;;;;;;;;;25.90;35.00;;;;;;4966137;28;20024;-53
2023/12/01 12:34:38;;;;;;;;;;;25.90;35.00;;;;;;4966315;28;20017;-56
2023/12/01 12:37:06;;;;;;;;;;;25.90;35.20;;;;;;4971564;28;19932;-54
2023/12/01 12:39:33;;;;;;;;;;;25.90;35.10;;;;;;4966196;28;20781;-54
2023/12/01 12:42:01;;;;;;;;;;;26.00;35.20;;;;;;4949008;28;20391;-55
2023/12/01 12:44:32;;;;;;;;;;;26.00;35.00;;;;;;4964857;28;19934;-54
2023/12/01 12:47:04;;;;;;;;;;;26.00;34.70;;;;;;4963434;28;20655;-53
2023/12/01 12:49:33;;;;;;;;;;;26.10;34.90;;;;;;4966478;28;20300;-53
2023/12/01 12:52:02;;;;;;;;;;;26.10;34.80;;;;;;4965469;28;19934;-54
2023/12/01 12:54:29;;;;;;;;;;;26.10;34.80;;;;;;4965029;28;19945;-51
2023/12/01 12:56:57;;;;;;;;;;;26.10;35.00;;;;;;4968300;28;19934;-55
2023/12/01 12:59:26;;;;;;;;;;;26.10;34.90;;;;;;4965414;28;21801;-51
2023/12/01 13:01:53;;;;;;;;;;;26.10;35.00;;;;;;4963737;28;19946;-51
2023/12/01 13:04:21;;;;;;;;;;;26.00;35.20;;;;;;4969040;28;20021;-55
2023/12/01 13:06:48;;;;;;;;;;;25.90;35.40;;;;;;4976065;28;20331;-53
2023/12/01 13:09:16;;;;;;;;;;;25.80;35.50;;;;;;4981347;28;19972;-53
2023/12/01 13:11:46;;;;;;;;;;;25.80;35.50;;;;;;4977498;28;19932;-52
2023/12/01 13:14:14;;;;;;;;;;;25.70;35.60;;;;;;4975992;28;20451;-52
2023/12/01 13:16:42;;;;;;;;;;;25.60;35.60;;;;;;4982419;28;19936;-53
2023/12/01 13:19:12;;;;;;;;;;;25.50;35.60;;;;;;4976084;28;20017;-55
2023/12/01 13:21:39;;;;;;;;;;;25.50;35.70;;;;;;4971133;28;19981;-53
2023/12/01 13:24:06;;;;;;;;;;;25.50;35.80;;;;;;4974066;28;19949;-53
2023/12/01 13:26:34;;;;;;;;;;;25.40;35.80;;;;;;4979441;28;19969;-54
2023/12/01 13:29:01;;;;;;;;;;;25.30;35.70;;;;;;4979813;28;19931;-50
2023/12/01 13:31:28;;;;;;;;;;;25.20;35.70;;;;;;4978138;28;20360;-49
2023/12/01 13:33:56;;;;;;;;;;;25.20;35.80;;;;;;4974691;28;19981;-53
2023/12/01 13:36:23;;;;;;;;;;;25.10;35.90;;;;;;4979216;28;19980;-53
2023/12/01 13:38:51;;;;;;;;;;;25.10;36.00;;;;;;4979798;28;19932;-54
2023/12/01 13:41:18;;;;;;;;;;;25.00;36.10;;;;;;4980035;28;19925;-50
2023/12/01 13:43:45;;;;;;;;;;;25.00;36.30;;;;;;4978858;28;19929;-51
2023/12/01 13:46:12;;;;;;;;;;;25.00;36.60;;;;;;4980464;28;20024;-51
2023/12/01 13:48:39;;;;;;;;;;;24.90;36.70;;;;;;4984935;28;19925;-51
2023/12/01 13:51:07;;;;;;;;;;;24.90;37.30;;;;;;4959711;28;20392;-52
2023/12/01 13:53:34;;;;;;;;;;;24.90;37.60;;;;;;4974205;28;20372;-54
2023/12/01 13:56:03;;;;;;;;;;;24.80;37.80;;;;;;4977791;28;19949;-51
2023/12/01 13:58:38;;;;;;;;;;;24.70;38.00;;;;;;4979098;28;20380;-55
2023/12/01 14:01:06;;;;;;;;;;;24.70;38.20;;;;;;4974591;28;19985;-52
2023/12/01 14:03:33;;;;;;;;;;;24.70;38.30;;;;;;4974751;28;19926;-52
2023/12/01 14:06:00;;;;;;;;;;;24.70;38.30;;;;;;4979404;28;19933;-49
2023/12/01 14:08:27;;;;;;;;;;;24.60;38.20;;;;;;4963174;28;19934;-51
2023/12/01 14:10:54;;;;;;;;;;;24.60;38.30;;;;;;4976217;28;19980;-52
2023/12/01 14:13:21;;;;;;;;;;;24.50;38.40;;;;;;4987281;28;20033;-51
2023/12/01 14:15:48;;;;;;;;;;;24.50;38.40;;;;;;4978426;28;19926;-52
2023/12/01 14:18:15;;;;;;;;;;;24.50;38.40;;;;;;4975378;28;19926;-52
2023/12/01 14:20:44;;;;;;;;;;;24.40;38.70;;;;;;4975387;28;20384;-53
2023/12/01 14:23:11;;;;;;;;;;;24.30;39.20;;;;;;4974935;28;20016;-53